sensor_id;sensor_type;location;lat;lon;timestamp;pressure;altitude;pressure_sealevel;temperature;humidity
68712;BME280;55690;51.566;19.198;2023-05-19T00:02:35;102797.23;;;14.41;87.42
68712;BME280;55690;51.566;19.198;2023-05-19T00:06:42;102786.23;;;14.42;87.13
68712;BME280;55690;51.566;19.198;2023-05-19T00:10:48;102786.29;;;14.41;87.58
68712;BME280;55690;51.566;19.198;2023-05-19T00:14:54;102785.57;;;14.37;87.51
68712;BME280;55690;51.566;19.198;2023-05-19T00:19:01;102785.41;;;14.40;87.20
68712;BME280;55690;51.566;19.198;2023-05-19T00:23:06;102784.47;;;14.41;87.62
68712;BME280;55690;51.566;19.198;2023-05-19T00:27:12;102779.27;;;14.52;87.12
68712;BME280;55690;51.566;19.198;2023-05-19T00:31:18;102775.65;;;14.52;88.22
68712;BME280;55690;51.566;19.198;2023-05-19T00:35:24;102777.06;;;14.43;88.17
68712;BME280;55690;51.566;19.198;2023-05-19T00:39:30;102770.27;;;14.50;86.74
68712;BME280;55690;51.566;19.198;2023-05-19T00:43:36;102773.14;;;14.31;87.71
68712;BME280;55690;51.566;19.198;2023-05-19T00:47:43;102765.34;;;14.41;87.85
68712;BME280;55690;51.566;19.198;2023-05-19T00:51:49;102765.06;;;14.46;87.58
68712;BME280;55690;51.566;19.198;2023-05-19T00:55:55;102771.20;;;14.33;87.47
68712;BME280;55690;51.566;19.198;2023-05-19T01:00:02;102763.49;;;14.42;86.30
68712;BME280;55690;51.566;19.198;2023-05-19T01:04:07;102765.56;;;14.37;88.28
68712;BME280;55690;51.566;19.198;2023-05-19T01:08:13;102767.43;;;14.20;88.23
68712;BME280;55690;51.566;19.198;2023-05-19T01:12:20;102766.81;;;14.15;88.87
68712;BME280;55690;51.566;19.198;2023-05-19T01:20:45;102762.83;;;14.05;89.20
68712;BME280;55690;51.566;19.198;2023-05-19T01:33:20;102765.50;;;14.22;87.88
68712;BME280;55690;51.566;19.198;2023-05-19T01:37:23;102768.23;;;14.22;88.09
68712;BME280;55690;51.566;19.198;2023-05-19T01:41:26;102760.48;;;14.15;88.96
68712;BME280;55690;51.566;19.198;2023-05-19T01:45:31;102757.99;;;14.10;88.26
68712;BME280;55690;51.566;19.198;2023-05-19T01:49:33;102767.51;;;14.03;89.62
68712;BME280;55690;51.566;19.198;2023-05-19T01:53:35;102769.91;;;14.25;88.03
68712;BME280;55690;51.566;19.198;2023-05-19T02:01:53;102758.70;;;14.14;88.10
68712;BME280;55690;51.566;19.198;2023-05-19T02:10:20;102760.45;;;13.99;88.95
68712;BME280;55690;51.566;19.198;2023-05-19T02:14:29;102754.73;;;14.04;89.17
68712;BME280;55690;51.566;19.198;2023-05-19T02:18:33;102751.91;;;14.05;88.67
68712;BME280;55690;51.566;19.198;2023-05-19T02:22:36;102748.72;;;13.97;89.00
68712;BME280;55690;51.566;19.198;2023-05-19T02:26:38;102738.69;;;13.97;89.18
68712;BME280;55690;51.566;19.198;2023-05-19T02:30:40;102742.47;;;13.95;89.46
68712;BME280;55690;51.566;19.198;2023-05-19T02:34:42;102738.97;;;14.09;89.70
68712;BME280;55690;51.566;19.198;2023-05-19T02:38:45;102739.30;;;14.03;89.91
68712;BME280;55690;51.566;19.198;2023-05-19T02:42:46;102733.85;;;14.18;88.05
68712;BME280;55690;51.566;19.198;2023-05-19T02:46:48;102732.01;;;14.19;88.33
68712;BME280;55690;51.566;19.198;2023-05-19T02:50:49;102741.25;;;14.16;89.28
68712;BME280;55690;51.566;19.198;2023-05-19T02:54:54;102739.30;;;14.03;89.29
68712;BME280;55690;51.566;19.198;2023-05-19T02:59:01;102745.20;;;13.95;89.31
68712;BME280;55690;51.566;19.198;2023-05-19T03:03:07;102753.22;;;13.98;89.58
68712;BME280;55690;51.566;19.198;2023-05-19T03:07:13;102741.25;;;14.16;88.48
68712;BME280;55690;51.566;19.198;2023-05-19T03:11:19;102741.16;;;14.02;88.67
68712;BME280;55690;51.566;19.198;2023-05-19T03:15:25;102742.38;;;13.96;89.55
68712;BME280;55690;51.566;19.198;2023-05-19T03:19:32;102745.95;;;13.65;90.21
68712;BME280;55690;51.566;19.198;2023-05-19T03:23:38;102744.31;;;13.79;89.40
68712;BME280;55690;51.566;19.198;2023-05-19T03:27:44;102742.88;;;13.72;90.58
68712;BME280;55690;51.566;19.198;2023-05-19T03:31:50;102740.66;;;13.62;91.55
68712;BME280;55690;51.566;19.198;2023-05-19T03:35:56;102744.95;;;13.84;90.39
68712;BME280;55690;51.566;19.198;2023-05-19T03:40:03;102736.67;;;13.85;90.67
68712;BME280;55690;51.566;19.198;2023-05-19T03:44:08;102738.23;;;13.74;91.39
68712;BME280;55690;51.566;19.198;2023-05-19T03:48:15;102738.06;;;13.77;91.43
68712;BME280;55690;51.566;19.198;2023-05-19T03:52:21;102736.74;;;13.84;91.02
68712;BME280;55690;51.566;19.198;2023-05-19T03:56:27;102733.64;;;13.90;91.23
68712;BME280;55690;51.566;19.198;2023-05-19T04:00:33;102740.70;;;13.78;90.93
68712;BME280;55690;51.566;19.198;2023-05-19T04:04:39;102741.92;;;13.88;91.64
68712;BME280;55690;51.566;19.198;2023-05-19T04:08:46;102734.11;;;13.98;90.96
68712;BME280;55690;51.566;19.198;2023-05-19T04:12:52;102751.63;;;13.94;91.52
68712;BME280;55690;51.566;19.198;2023-05-19T04:16:58;102754.47;;;14.08;90.84
68712;BME280;55690;51.566;19.198;2023-05-19T04:21:04;102747.09;;;14.26;89.15
68712;BME280;55690;51.566;19.198;2023-05-19T04:25:10;102753.52;;;14.25;90.00
68712;BME280;55690;51.566;19.198;2023-05-19T04:29:16;102755.38;;;14.24;90.41
68712;BME280;55690;51.566;19.198;2023-05-19T04:33:23;102754.47;;;14.08;91.31
68712;BME280;55690;51.566;19.198;2023-05-19T04:37:29;102748.50;;;14.17;91.04
68712;BME280;55690;51.566;19.198;2023-05-19T04:41:35;102759.24;;;14.20;92.16
68712;BME280;55690;51.566;19.198;2023-05-19T04:45:41;102746.25;;;13.92;93.05
68712;BME280;55690;51.566;19.198;2023-05-19T04:49:47;102739.56;;;13.98;93.60
68712;BME280;55690;51.566;19.198;2023-05-19T04:53:54;102737.82;;;14.13;92.21
68712;BME280;55690;51.566;19.198;2023-05-19T04:58:00;102735.16;;;13.95;92.86
68712;BME280;55690;51.566;19.198;2023-05-19T05:02:06;102740.10;;;14.05;92.55
68712;BME280;55690;51.566;19.198;2023-05-19T05:06:12;102737.91;;;14.11;92.82
68712;BME280;55690;51.566;19.198;2023-05-19T05:10:18;102731.30;;;14.15;92.08
68712;BME280;55690;51.566;19.198;2023-05-19T05:14:25;102728.76;;;14.28;92.76
68712;BME280;55690;51.566;19.198;2023-05-19T05:18:32;102730.69;;;14.26;92.41
68712;BME280;55690;51.566;19.198;2023-05-19T05:22:37;102734.45;;;13.92;93.21
68712;BME280;55690;51.566;19.198;2023-05-19T05:26:43;102737.13;;;13.60;93.71
68712;BME280;55690;51.566;19.198;2023-05-19T05:30:49;102731.63;;;13.78;94.98
68712;BME280;55690;51.566;19.198;2023-05-19T05:34:55;102723.61;;;13.75;95.12
68712;BME280;55690;51.566;19.198;2023-05-19T05:39:01;102728.19;;;13.90;95.30
68712;BME280;55690;51.566;19.198;2023-05-19T05:43:07;102729.88;;;14.08;94.01
68712;BME280;55690;51.566;19.198;2023-05-19T05:47:14;102709.00;;;14.23;92.05
68712;BME280;55690;51.566;19.198;2023-05-19T05:51:24;102728.38;;;14.18;93.26
68712;BME280;55690;51.566;19.198;2023-05-19T05:55:27;102738.85;;;13.94;93.97
68712;BME280;55690;51.566;19.198;2023-05-19T05:59:32;102732.86;;;14.35;91.96
68712;BME280;55690;51.566;19.198;2023-05-19T06:03:42;102728.92;;;14.25;91.06
68712;BME280;55690;51.566;19.198;2023-05-19T06:07:47;102731.30;;;13.84;92.26
68712;BME280;55690;51.566;19.198;2023-05-19T06:11:51;102731.42;;;13.65;92.46
68712;BME280;55690;51.566;19.198;2023-05-19T06:15:57;102732.97;;;14.18;91.25
68712;BME280;55690;51.566;19.198;2023-05-19T06:20:04;102734.11;;;13.98;91.87
68712;BME280;55690;51.566;19.198;2023-05-19T06:24:12;102730.23;;;14.49;90.55
68712;BME280;55690;51.566;19.198;2023-05-19T06:28:15;102742.04;;;14.95;89.80
68712;BME280;55690;51.566;19.198;2023-05-19T06:32:22;102749.48;;;14.78;88.25
68712;BME280;55690;51.566;19.198;2023-05-19T06:36:28;102749.48;;;14.78;88.01
68712;BME280;55690;51.566;19.198;2023-05-19T06:40:35;102754.04;;;14.16;89.16
68712;BME280;55690;51.566;19.198;2023-05-19T06:44:40;102752.95;;;13.87;89.62
68712;BME280;55690;51.566;19.198;2023-05-19T06:48:46;102752.02;;;14.19;89.79
68712;BME280;55690;51.566;19.198;2023-05-19T06:52:52;102752.50;;;13.94;89.97
68712;BME280;55690;51.566;19.198;2023-05-19T06:56:59;102755.51;;;14.37;88.80
68712;BME280;55690;51.566;19.198;2023-05-19T07:01:05;102751.13;;;14.66;88.35
68712;BME280;55690;51.566;19.198;2023-05-19T07:05:11;102750.44;;;14.47;88.54
68712;BME280;55690;51.566;19.198;2023-05-19T07:09:17;102758.81;;;14.44;88.24
68712;BME280;55690;51.566;19.198;2023-05-19T07:13:23;102747.88;;;14.44;88.88
68712;BME280;55690;51.566;19.198;2023-05-19T07:17:29;102744.08;;;14.46;88.68
68712;BME280;55690;51.566;19.198;2023-05-19T07:21:36;102745.41;;;14.55;88.20
68712;BME280;55690;51.566;19.198;2023-05-19T07:25:42;102759.33;;;14.19;88.40
68712;BME280;55690;51.566;19.198;2023-05-19T07:29:48;102745.77;;;14.79;87.40
68712;BME280;55690;51.566;19.198;2023-05-19T07:33:55;102748.76;;;14.60;88.50
68712;BME280;55690;51.566;19.198;2023-05-19T07:38:00;102742.13;;;14.64;87.78
68712;BME280;55690;51.566;19.198;2023-05-19T07:42:07;102745.66;;;14.66;88.07
68712;BME280;55690;51.566;19.198;2023-05-19T07:46:13;102734.14;;;14.75;87.48
68712;BME280;55690;51.566;19.198;2023-05-19T07:50:19;102743.04;;;14.79;87.43
68712;BME280;55690;51.566;19.198;2023-05-19T07:54:25;102733.89;;;15.24;86.47
68712;BME280;55690;51.566;19.198;2023-05-19T07:58:31;102733.50;;;14.86;87.39
68712;BME280;55690;51.566;19.198;2023-05-19T08:02:37;102741.39;;;15.20;86.90
68712;BME280;55690;51.566;19.198;2023-05-19T08:06:43;102744.18;;;15.35;85.24
68712;BME280;55690;51.566;19.198;2023-05-19T08:10:50;102749.76;;;14.73;86.73
68712;BME280;55690;51.566;19.198;2023-05-19T08:14:56;102742.59;;;14.86;86.40
68712;BME280;55690;51.566;19.198;2023-05-19T08:19:02;102748.06;;;14.86;86.30
68712;BME280;55690;51.566;19.198;2023-05-19T08:23:08;102754.60;;;14.84;86.57
68712;BME280;55690;51.566;19.198;2023-05-19T08:27:15;102749.05;;;15.15;86.45
68712;BME280;55690;51.566;19.198;2023-05-19T08:31:20;102754.37;;;15.03;86.85
68712;BME280;55690;51.566;19.198;2023-05-19T08:35:27;102743.70;;;15.42;85.45
68712;BME280;55690;51.566;19.198;2023-05-19T08:39:33;102740.15;;;15.26;86.19
68712;BME280;55690;51.566;19.198;2023-05-19T08:43:39;102730.58;;;15.33;86.30
68712;BME280;55690;51.566;19.198;2023-05-19T08:47:46;102729.03;;;15.43;85.07
68712;BME280;55690;51.566;19.198;2023-05-19T08:52:01;102728.60;;;15.21;85.35
68712;BME280;55690;51.566;19.198;2023-05-19T08:56:15;102721.24;;;15.80;84.21
68712;BME280;55690;51.566;19.198;2023-05-19T09:00:18;102727.39;;;15.83;84.97
68712;BME280;55690;51.566;19.198;2023-05-19T09:04:21;102734.45;;;15.87;84.66
68712;BME280;55690;51.566;19.198;2023-05-19T09:08:23;102738.60;;;15.36;85.03
68712;BME280;55690;51.566;19.198;2023-05-19T09:12:25;102725.11;;;15.33;85.15
68712;BME280;55690;51.566;19.198;2023-05-19T09:16:28;102729.13;;;15.42;84.56
68712;BME280;55690;51.566;19.198;2023-05-19T09:20:41;102735.29;;;15.45;85.53
68712;BME280;55690;51.566;19.198;2023-05-19T09:24:44;102740.39;;;15.51;85.55
68712;BME280;55690;51.566;19.198;2023-05-19T09:28:47;102739.63;;;15.63;84.65
68712;BME280;55690;51.566;19.198;2023-05-19T09:32:53;102733.11;;;15.22;85.66
68712;BME280;55690;51.566;19.198;2023-05-19T09:36:59;102725.30;;;15.30;85.12
68712;BME280;55690;51.566;19.198;2023-05-19T09:41:07;102730.77;;;15.16;86.04
68712;BME280;55690;51.566;19.198;2023-05-19T09:45:12;102706.30;;;15.57;85.43
68712;BME280;55690;51.566;19.198;2023-05-19T09:49:27;102705.69;;;16.21;84.31
68712;BME280;55690;51.566;19.198;2023-05-19T09:53:33;102702.71;;;16.39;83.24
68712;BME280;55690;51.566;19.198;2023-05-19T09:57:36;102709.77;;;16.02;83.29
68712;BME280;55690;51.566;19.198;2023-05-19T10:01:38;102720.46;;;15.78;83.66
68712;BME280;55690;51.566;19.198;2023-05-19T10:05:46;102719.57;;;15.91;84.09
68712;BME280;55690;51.566;19.198;2023-05-19T10:09:49;102720.55;;;15.90;84.35
68712;BME280;55690;51.566;19.198;2023-05-19T10:13:55;102714.50;;;16.26;83.13
68712;BME280;55690;51.566;19.198;2023-05-19T10:18:02;102729.05;;;15.86;83.77
68712;BME280;55690;51.566;19.198;2023-05-19T10:22:07;102724.17;;;15.62;84.82
68712;BME280;55690;51.566;19.198;2023-05-19T10:26:14;102725.91;;;15.49;85.50
68712;BME280;55690;51.566;19.198;2023-05-19T10:30:30;102724.76;;;15.82;86.02
68712;BME280;55690;51.566;19.198;2023-05-19T10:43:16;102713.71;;;16.24;84.58
68712;BME280;55690;51.566;19.198;2023-05-19T10:47:23;102720.05;;;15.70;84.67
68712;BME280;55690;51.566;19.198;2023-05-19T10:51:31;102713.13;;;16.19;83.93
68712;BME280;55690;51.566;19.198;2023-05-19T10:59:51;102717.14;;;16.28;83.78
68712;BME280;55690;51.566;19.198;2023-05-19T11:03:54;102713.60;;;15.99;84.15
68712;BME280;55690;51.566;19.198;2023-05-19T11:07:58;102718.19;;;15.99;84.15
68712;BME280;55690;51.566;19.198;2023-05-19T11:12:08;102726.86;;;16.05;85.23
68712;BME280;55690;51.566;19.198;2023-05-19T11:16:10;102714.26;;;16.44;83.69
68712;BME280;55690;51.566;19.198;2023-05-19T11:20:21;102715.02;;;16.73;84.26
68712;BME280;55690;51.566;19.198;2023-05-19T11:24:33;102710.98;;;16.24;84.50
68712;BME280;55690;51.566;19.198;2023-05-19T11:28:36;102709.72;;;16.16;85.34
68712;BME280;55690;51.566;19.198;2023-05-19T11:32:38;102719.62;;;16.04;85.29
68712;BME280;55690;51.566;19.198;2023-05-19T11:36:43;102725.77;;;16.22;85.24
68712;BME280;55690;51.566;19.198;2023-05-19T11:40:47;102730.63;;;15.90;85.82
68712;BME280;55690;51.566;19.198;2023-05-19T11:44:54;102723.68;;;15.84;86.42
68712;BME280;55690;51.566;19.198;2023-05-19T11:48:56;102722.22;;;15.64;86.29
68712;BME280;55690;51.566;19.198;2023-05-19T11:52:59;102708.27;;;16.10;85.60
68712;BME280;55690;51.566;19.198;2023-05-19T11:57:04;102722.48;;;16.03;86.39
68712;BME280;55690;51.566;19.198;2023-05-19T12:01:05;102728.47;;;15.95;86.46
68712;BME280;55690;51.566;19.198;2023-05-19T12:09:21;102725.87;;;16.47;85.00
68712;BME280;55690;51.566;19.198;2023-05-19T12:13:24;102730.73;;;16.29;85.08
68712;BME280;55690;51.566;19.198;2023-05-19T12:17:26;102734.35;;;15.89;86.26
68712;BME280;55690;51.566;19.198;2023-05-19T12:21:28;102732.96;;;15.53;87.09
68712;BME280;55690;51.566;19.198;2023-05-19T12:25:29;102723.34;;;16.03;85.67
68712;BME280;55690;51.566;19.198;2023-05-19T12:29:31;102726.32;;;15.86;86.29
68712;BME280;55690;51.566;19.198;2023-05-19T12:33:34;102721.03;;;15.97;86.69
68712;BME280;55690;51.566;19.198;2023-05-19T12:37:39;102727.72;;;16.20;85.79
68712;BME280;55690;51.566;19.198;2023-05-19T12:41:44;102729.30;;;16.10;86.77
68712;BME280;55690;51.566;19.198;2023-05-19T12:45:45;102725.33;;;16.01;85.99
68712;BME280;55690;51.566;19.198;2023-05-19T12:50:10;102728.60;;;16.20;85.96
68712;BME280;55690;51.566;19.198;2023-05-19T12:54:03;102726.91;;;15.91;86.54
68712;BME280;55690;51.566;19.198;2023-05-19T12:58:06;102724.27;;;15.89;87.27
68712;BME280;55690;51.566;19.198;2023-05-19T13:02:08;102728.22;;;16.12;87.03
68712;BME280;55690;51.566;19.198;2023-05-19T13:06:14;102715.60;;;16.10;86.50
68712;BME280;55690;51.566;19.198;2023-05-19T13:10:20;102721.72;;;16.54;85.23
68712;BME280;55690;51.566;19.198;2023-05-19T13:14:26;102721.84;;;16.53;85.21
68712;BME280;55690;51.566;19.198;2023-05-19T13:18:32;102718.08;;;16.41;85.99
68712;BME280;55690;51.566;19.198;2023-05-19T13:22:39;102721.27;;;16.07;86.93
68712;BME280;55690;51.566;19.198;2023-05-19T13:26:45;102717.23;;;15.85;87.63
68712;BME280;55690;51.566;19.198;2023-05-19T13:30:51;102717.92;;;15.75;87.67
68712;BME280;55690;51.566;19.198;2023-05-19T13:34:58;102720.61;;;16.03;87.30
68712;BME280;55690;51.566;19.198;2023-05-19T13:39:03;102713.27;;;16.45;86.52
68712;BME280;55690;51.566;19.198;2023-05-19T13:43:09;102699.96;;;16.39;85.37
68712;BME280;55690;51.566;19.198;2023-05-19T13:47:15;102702.30;;;16.72;86.15
68712;BME280;55690;51.566;19.198;2023-05-19T13:51:22;102697.25;;;16.51;85.78
68712;BME280;55690;51.566;19.198;2023-05-19T13:55:28;102697.62;;;16.59;85.55
68712;BME280;55690;51.566;19.198;2023-05-19T13:59:34;102697.45;;;17.27;84.18
68712;BME280;55690;51.566;19.198;2023-05-19T14:03:40;102693.43;;;16.93;84.88
68712;BME280;55690;51.566;19.198;2023-05-19T14:07:46;102687.20;;;17.04;85.44
68712;BME280;55690;51.566;19.198;2023-05-19T14:11:53;102694.23;;;17.08;85.04
68712;BME280;55690;51.566;19.198;2023-05-19T14:15:59;102705.45;;;16.39;86.20
68712;BME280;55690;51.566;19.198;2023-05-19T14:20:06;102697.50;;;16.07;86.77
68712;BME280;55690;51.566;19.198;2023-05-19T14:24:11;102699.13;;;16.24;86.56
68712;BME280;55690;51.566;19.198;2023-05-19T14:28:17;102704.69;;;15.95;87.66
68712;BME280;55690;51.566;19.198;2023-05-19T14:32:23;102696.70;;;16.19;87.14
68712;BME280;55690;51.566;19.198;2023-05-19T14:36:30;102692.63;;;16.66;85.93
68712;BME280;55690;51.566;19.198;2023-05-19T14:40:37;102693.79;;;16.62;86.83
68712;BME280;55690;51.566;19.198;2023-05-19T14:44:42;102694.88;;;16.86;85.16
68712;BME280;55690;51.566;19.198;2023-05-19T14:48:48;102698.37;;;16.76;85.83
68712;BME280;55690;51.566;19.198;2023-05-19T14:52:55;102693.54;;;16.92;85.45
68712;BME280;55690;51.566;19.198;2023-05-19T14:57:00;102696.05;;;16.55;84.96
68712;BME280;55690;51.566;19.198;2023-05-19T15:01:07;102694.64;;;16.77;85.66
68712;BME280;55690;51.566;19.198;2023-05-19T15:05:13;102697.52;;;16.88;85.41
68712;BME280;55690;51.566;19.198;2023-05-19T15:09:19;102696.08;;;16.82;85.61
68712;BME280;55690;51.566;19.198;2023-05-19T15:13:25;102702.91;;;17.02;85.84
68712;BME280;55690;51.566;19.198;2023-05-19T15:17:31;102698.98;;;16.67;86.21
68712;BME280;55690;51.566;19.198;2023-05-19T15:21:37;102710.20;;;16.22;87.19
68712;BME280;55690;51.566;19.198;2023-05-19T15:25:44;102700.44;;;16.45;86.80
68712;BME280;55690;51.566;19.198;2023-05-19T15:29:50;102705.05;;;16.45;86.63
68712;BME280;55690;51.566;19.198;2023-05-19T15:33:56;102701.35;;;16.32;87.24
68712;BME280;55690;51.566;19.198;2023-05-19T15:38:02;102700.57;;;16.83;85.53
68712;BME280;55690;51.566;19.198;2023-05-19T15:42:08;102698.22;;;16.65;85.87
68712;BME280;55690;51.566;19.198;2023-05-19T15:46:14;102707.55;;;16.48;86.82
68712;BME280;55690;51.566;19.198;2023-05-19T15:50:21;102703.45;;;16.14;88.32
68712;BME280;55690;51.566;19.198;2023-05-19T15:54:27;102695.94;;;16.03;88.66
68712;BME280;55690;51.566;19.198;2023-05-19T15:58:33;102698.35;;;16.22;88.99
68712;BME280;55690;51.566;19.198;2023-05-19T16:02:39;102694.03;;;15.77;89.51
68712;BME280;55690;51.566;19.198;2023-05-19T16:06:45;102663.21;;;15.87;89.35
68712;BME280;55690;51.566;19.198;2023-05-19T16:10:51;102702.98;;;16.07;88.95
68712;BME280;55690;51.566;19.198;2023-05-19T16:14:58;102698.81;;;16.02;89.15
68712;BME280;55690;51.566;19.198;2023-05-19T16:19:04;102704.90;;;15.92;89.35
68712;BME280;55690;51.566;19.198;2023-05-19T16:23:10;102704.15;;;16.03;89.37
68712;BME280;55690;51.566;19.198;2023-05-19T16:27:16;102706.30;;;16.12;89.68
68712;BME280;55690;51.566;19.198;2023-05-19T16:31:22;102704.15;;;16.03;89.83
68712;BME280;55690;51.566;19.198;2023-05-19T16:35:28;102697.00;;;16.15;88.96
68712;BME280;55690;51.566;19.198;2023-05-19T16:39:35;102698.66;;;16.17;89.11
68712;BME280;55690;51.566;19.198;2023-05-19T16:43:41;102695.30;;;16.26;89.08
68712;BME280;55690;51.566;19.198;2023-05-19T16:47:47;102698.35;;;16.22;89.00
68712;BME280;55690;51.566;19.198;2023-05-19T16:51:53;102693.40;;;16.41;88.80
68712;BME280;55690;51.566;19.198;2023-05-19T17:00:25;102705.90;;;16.18;89.67
68712;BME280;55690;51.566;19.198;2023-05-19T17:04:29;102708.02;;;16.27;89.34
68712;BME280;55690;51.566;19.198;2023-05-19T17:08:30;102712.05;;;16.22;89.24
68712;BME280;55690;51.566;19.198;2023-05-19T17:12:32;102717.14;;;16.28;89.75
68712;BME280;55690;51.566;19.198;2023-05-19T17:16:34;102715.55;;;15.97;91.12
68712;BME280;55690;51.566;19.198;2023-05-19T17:20:36;102715.86;;;15.92;90.66
68712;BME280;55690;51.566;19.198;2023-05-19T17:24:44;102720.45;;;15.63;91.67
68712;BME280;55690;51.566;19.198;2023-05-19T17:28:49;102715.45;;;15.56;92.75
68712;BME280;55690;51.566;19.198;2023-05-19T17:32:55;102708.72;;;15.90;91.41
68712;BME280;55690;51.566;19.198;2023-05-19T17:37:01;102712.23;;;15.92;91.44
68712;BME280;55690;51.566;19.198;2023-05-19T17:41:08;102708.13;;;15.71;92.16
68712;BME280;55690;51.566;19.198;2023-05-19T17:45:14;102707.84;;;15.89;91.86
68712;BME280;55690;51.566;19.198;2023-05-19T17:49:19;102710.42;;;16.05;91.28
68712;BME280;55690;51.566;19.198;2023-05-19T17:53:26;102705.52;;;16.10;91.02
68712;BME280;55690;51.566;19.198;2023-05-19T17:57:34;102717.23;;;15.85;92.12
68712;BME280;55690;51.566;19.198;2023-05-19T18:01:38;102726.47;;;16.11;90.47
68712;BME280;55690;51.566;19.198;2023-05-19T18:05:45;102717.62;;;15.65;92.62
68712;BME280;55690;51.566;19.198;2023-05-19T18:09:51;102719.86;;;15.87;91.87
68712;BME280;55690;51.566;19.198;2023-05-19T18:13:57;102713.60;;;15.99;90.19
68712;BME280;55690;51.566;19.198;2023-05-19T18:18:03;102729.26;;;15.83;91.78
68712;BME280;55690;51.566;19.198;2023-05-19T18:22:09;102724.70;;;16.10;91.01
68712;BME280;55690;51.566;19.198;2023-05-19T18:26:15;102730.92;;;15.85;92.35
68712;BME280;55690;51.566;19.198;2023-05-19T18:30:22;102723.39;;;15.89;92.02
68712;BME280;55690;51.566;19.198;2023-05-19T18:34:28;102725.43;;;16.00;91.42
68712;BME280;55690;51.566;19.198;2023-05-19T18:38:37;102730.29;;;16.09;91.12
68712;BME280;55690;51.566;19.198;2023-05-19T18:42:43;102735.51;;;15.99;91.73
68712;BME280;55690;51.566;19.198;2023-05-19T18:46:49;102745.69;;;15.83;92.59
68712;BME280;55690;51.566;19.198;2023-05-19T18:50:55;102742.02;;;16.11;91.06
68712;BME280;55690;51.566;19.198;2023-05-19T18:55:01;102740.80;;;15.88;91.80
68712;BME280;55690;51.566;19.198;2023-05-19T18:59:07;102736.50;;;15.84;92.67
68712;BME280;55690;51.566;19.198;2023-05-19T19:03:14;102744.29;;;16.04;91.34
68712;BME280;55690;51.566;19.198;2023-05-19T19:07:20;102745.49;;;15.86;91.65
68712;BME280;55690;51.566;19.198;2023-05-19T19:11:26;102749.22;;;15.85;92.38
68712;BME280;55690;51.566;19.198;2023-05-19T19:15:32;102752.44;;;15.91;92.28
68712;BME280;55690;51.566;19.198;2023-05-19T19:19:38;102748.53;;;15.81;92.01
68712;BME280;55690;51.566;19.198;2023-05-19T19:23:44;102752.73;;;15.73;92.97
68712;BME280;55690;51.566;19.198;2023-05-19T19:27:51;102746.48;;;15.85;91.82
68712;BME280;55690;51.566;19.198;2023-05-19T19:31:57;102750.69;;;15.76;93.48
68712;BME280;55690;51.566;19.198;2023-05-19T19:36:03;102752.15;;;15.82;93.17
68712;BME280;55690;51.566;19.198;2023-05-19T19:40:10;102744.03;;;15.80;92.46
68712;BME280;55690;51.566;19.198;2023-05-19T19:44:15;102754.88;;;15.96;91.68
68712;BME280;55690;51.566;19.198;2023-05-19T19:48:21;102750.00;;;16.01;92.22
68712;BME280;55690;51.566;19.198;2023-05-19T19:52:28;102754.99;;;15.94;91.68
68712;BME280;55690;51.566;19.198;2023-05-19T19:56:34;102764.67;;;16.00;91.78
68712;BME280;55690;51.566;19.198;2023-05-19T20:00:40;102763.80;;;15.85;92.89
68712;BME280;55690;51.566;19.198;2023-05-19T20:04:46;102760.95;;;15.73;93.47
68712;BME280;55690;51.566;19.198;2023-05-19T20:08:52;102759.98;;;15.88;92.71
68712;BME280;55690;51.566;19.198;2023-05-19T20:12:58;102769.18;;;15.87;92.84
68712;BME280;55690;51.566;19.198;2023-05-19T20:17:05;102769.27;;;15.71;94.35
68712;BME280;55690;51.566;19.198;2023-05-19T20:21:11;102772.84;;;15.43;95.11
68712;BME280;55690;51.566;19.198;2023-05-19T20:25:17;102772.02;;;15.85;93.59
68712;BME280;55690;51.566;19.198;2023-05-19T20:29:23;102779.36;;;15.56;94.61
68712;BME280;55690;51.566;19.198;2023-05-19T20:33:29;102777.34;;;15.44;95.00
68712;BME280;55690;51.566;19.198;2023-05-19T20:37:35;102774.04;;;15.53;95.41
68712;BME280;55690;51.566;19.198;2023-05-19T20:41:42;102777.41;;;15.58;95.39
68712;BME280;55690;51.566;19.198;2023-05-19T20:45:48;102766.76;;;15.38;96.27
68712;BME280;55690;51.566;19.198;2023-05-19T20:49:54;102761.57;;;15.34;96.21
68712;BME280;55690;51.566;19.198;2023-05-19T20:54:00;102766.76;;;15.38;95.98
68712;BME280;55690;51.566;19.198;2023-05-19T20:58:06;102760.00;;;15.59;95.54
68712;BME280;55690;51.566;19.198;2023-05-19T21:02:13;102761.26;;;15.82;94.43
68712;BME280;55690;51.566;19.198;2023-05-19T21:06:19;102762.11;;;15.54;95.46
68712;BME280;55690;51.566;19.198;2023-05-19T21:10:25;102772.11;;;15.25;97.76
68712;BME280;55690;51.566;19.198;2023-05-19T21:14:31;102766.34;;;15.30;96.57
68712;BME280;55690;51.566;19.198;2023-05-19T21:18:37;102767.58;;;15.54;96.38
68712;BME280;55690;51.566;19.198;2023-05-19T21:22:43;102773.67;;;15.74;95.70
68712;BME280;55690;51.566;19.198;2023-05-19T21:26:50;102770.05;;;15.87;95.27
68712;BME280;55690;51.566;19.198;2023-05-19T21:30:56;102776.02;;;15.66;95.80
68712;BME280;55690;51.566;19.198;2023-05-19T21:35:03;102765.06;;;15.94;94.28
68712;BME280;55690;51.566;19.198;2023-05-19T21:39:08;102765.23;;;15.48;97.10
68712;BME280;55690;51.566;19.198;2023-05-19T21:43:14;102760.34;;;15.53;96.47
68712;BME280;55690;51.566;19.198;2023-05-19T21:47:20;102758.86;;;15.48;97.46
68712;BME280;55690;51.566;19.198;2023-05-19T21:51:27;102756.13;;;15.48;97.20